Matagami Airport
CYNM : now visible

Airfield :











YOU CAN JOIN US ON...

 
LOGIN :

Register | Disclaimer

   EN    FR    IT 

 









Legend :    VFR   Marginal VFR   IFR   Intensive IFR   Very Intensive IFR
Visi :
Ceiling :
>= 8 km
>= 3000ft
5 to 8 km
1000 to 3000 ft
1500m to 5 km
500 to 1000 ft
800 to 1500m
200 to 500 ft
< 800m
< 200 ft
Symbols :   Thunderstorms  Fog  Heavy snow  Heavy precipitations  Wind > 20 kt






- Airport Elevation : 918 ft
- IATA code : YNM


CYNM - Matagami

CURRENT METAR :
  • 120200Z AUTO 25005KT 9SM FEW033 M23/M25 A3009 RMK SLP228

EXPIRED METARs :
  • 120155Z AUTO 25005KT 9SM SCT027 M23/M25 A3009 RMK SLP228
  • 120140Z AUTO 24005KT 7SM -SN BKN025 BKN044 M22/M25 A3008 RMK SLP227
  • 120134Z AUTO 24003KT 3SM -SN OVC020 M22/M25 A3008 RMK SLP227
  • 120126Z AUTO 25003KT 2 1/4SM -SN OVC022 M22/M25 A3008 RMK SLP226
  • 120117Z AUTO 24003KT 6SM -SN BKN022 M23/M25 A3008 RMK SLP225
  • 120106Z AUTO 24003KT 210V270 5SM -SN BKN020 BKN035 M22/M25 A3008 RMK SLP225
  • 120038Z AUTO 26004KT 6SM -SN OVC035 M22/M24 A3006 RMK SLP220
  • 120017Z AUTO 27006KT 5SM -SN FEW028 OVC037 M22/M24 A3006 RMK SLP218
  • 120000Z AUTO 26005KT 9SM -SN SCT021 OVC035 M21/M23 A3004 RMK SLP213
  • 112356Z AUTO 26004KT 7SM -SN BKN021 OVC035 M21/M23 A3004 RMK SLP213
  • 112344Z AUTO 26004KT 5SM -SN OVC021 M21/M23 A3004 RMK SLP210

TAF N/A



MET'MAP, your aeronautical weather chart ! - Copyright ORBIFLY December 2007 - Disclaimer

ORBIFLY MET'MAP TEAM :

Programming & Development : Alexandra Zaïnal
Concept & original design : Baudouin d'Aumeries
Assistance for programming : Marc-Olivier Méhu
Technical & hardware support : Manuel Goepfert

Contact : metmap@orbifly.com




SOURCES & CREDITS :

   NOAA       Earth
Advisory